Time;durP1;ratioP1;P1;durP2;ratioP2;P2;SDS_P1;SDS_P2;PMS_P1;PMS_P2;Temp;Humidity;BMP_temperature;BMP_pressure;BME280_temperature;BME280_humidity;BME280_pressure;Samples;Min_cycle;Max_cycle;Signal;HPM_P1;HPM_P2
2022/11/09 00:01:18;;;;;;;6.20;2.80;;;;;;;13.97;56.80;99445.09;1088195;54;20081;-80
2022/11/09 00:02:19;;;;;;;5.13;3.10;;;;;;;13.86;56.91;99449.03;1088074;54;20031;-79
2022/11/09 00:03:23;;;;;;;6.03;2.88;;;;;;;13.88;57.17;99453.22;1089101;47;20019;-80
2022/11/09 00:04:48;;;;;;;6.32;3.10;;;;;;;14.02;56.57;99443.53;1087679;54;20046;-82
2022/11/09 00:06:08;;;;;;;6.15;3.28;;;;;;;13.86;56.75;99449.88;1087611;54;20368;-82
2022/11/09 00:07:16;;;;;;;7.85;3.20;;;;;;;13.97;56.76;99451.28;1087698;54;20094;-79
2022/11/09 00:08:20;;;;;;;7.75;4.00;;;;;;;13.98;56.91;99444.91;1087678;54;20031;-80
2022/11/09 00:10:09;;;;;;;;;;;;;;;;;;;;;
2022/11/09 00:11:29;;;;;;;6.70;3.22;;;;;;;14.03;56.36;99447.88;1087608;54;20030;-80
2022/11/09 00:12:30;;;;;;;6.85;3.13;;;;;;;13.96;56.81;99459.53;1087669;54;20058;-82
2022/11/09 00:13:38;;;;;;;5.60;3.30;;;;;;;13.93;56.61;99466.13;1087651;54;20027;-80
2022/11/09 00:14:40;;;;;;;5.93;3.50;;;;;;;13.93;56.63;99458.06;1087587;54;20720;-79
2022/11/09 00:15:46;;;;;;;7.93;3.58;;;;;;;13.92;56.86;99455.53;1087697;54;20030;-79
2022/11/09 00:16:51;;;;;;;7.00;4.18;;;;;;;14.04;56.17;99452.22;1087694;54;20030;-79
2022/11/09 00:17:55;;;;;;;6.30;3.80;;;;;;;14.03;56.66;99455.09;1087717;54;20037;-80
2022/11/09 00:18:58;;;;;;;5.20;2.85;;;;;;;14.14;56.52;99454.69;1087769;54;20046;-80
2022/11/09 00:20:03;;;;;;;5.53;2.83;;;;;;;14.20;56.10;99445.88;1088005;47;20049;-80
2022/11/09 00:21:05;;;;;;;6.53;2.78;;;;;;;14.24;55.79;99445.50;1087738;54;20059;-80
2022/11/09 00:22:09;;;;;;;5.90;3.17;;;;;;;14.20;56.03;99448.56;1091171;31;20822;-80
2022/11/09 00:23:11;;;;;;;4.93;2.80;;;;;;;14.12;56.20;99448.63;1089586;47;20034;-79
2022/11/09 00:24:38;;;;;;;6.00;2.95;;;;;;;14.11;56.02;99446.97;1087909;54;20027;-81
2022/11/09 00:26:10;;;;;;;6.05;2.72;;;;;;;14.15;56.18;99442.91;1088367;47;20030;-81
2022/11/09 00:27:12;;;;;;;5.93;3.05;;;;;;;14.18;56.29;99442.53;1087981;54;20120;-80
2022/11/09 00:28:17;;;;;;;4.60;2.65;;;;;;;14.22;56.24;99451.06;1087822;54;20850;-81
2022/11/09 00:29:21;;;;;;;6.97;3.08;;;;;;;14.13;56.27;99439.56;1091283;46;20056;-82
2022/11/09 00:30:26;;;;;;;5.28;2.45;;;;;;;14.22;56.28;99436.78;1087883;54;20034;-79
2022/11/09 00:31:28;;;;;;;4.70;2.60;;;;;;;14.28;55.83;99425.28;1087962;46;20045;-79
2022/11/09 00:32:35;;;;;;;4.65;2.85;;;;;;;14.20;56.01;99429.75;1087841;54;20040;-79
2022/11/09 00:33:36;;;;;;;6.13;2.90;;;;;;;14.24;56.17;99426.69;1087983;54;20049;-81
2022/11/09 00:34:47;;;;;;;6.55;2.80;;;;;;;14.20;56.03;99432.44;1087953;54;20087;-80
2022/11/09 00:35:48;;;;;;;5.05;2.90;;;;;;;14.26;55.93;99432.72;1087770;54;20061;-79
2022/11/09 00:36:55;;;;;;;5.53;3.10;;;;;;;14.28;55.85;99434.22;1087622;54;20014;-79
2022/11/09 00:37:57;;;;;;;6.15;3.10;;;;;;;14.28;56.03;99436.03;1087760;54;20030;-78
2022/11/09 00:39:02;;;;;;;6.65;3.40;;;;;;;14.26;56.20;99438.94;1087696;54;20046;-79
2022/11/09 00:40:08;;;;;;;5.20;3.25;;;;;;;14.17;56.28;99448.91;1087689;54;20019;-79
2022/11/09 00:41:10;;;;;;;5.90;3.30;;;;;;;14.18;56.28;99452.44;1087575;54;20061;-79
2022/11/09 00:42:15;;;;;;;5.18;3.20;;;;;;;14.13;56.35;99463.75;1087696;54;20029;-79
2022/11/09 00:43:17;;;;;;;6.43;3.45;;;;;;;14.16;56.80;99449.09;1087785;54;20031;-79
2022/11/09 00:44:21;;;;;;;5.72;3.00;;;;;;;14.14;56.83;99446.59;1087761;54;20037;-78
2022/11/09 00:45:23;;;;;;;5.30;2.80;;;;;;;14.20;56.72;99448.56;1087731;54;20034;-79
2022/11/09 00:46:28;;;;;;;5.32;3.13;;;;;;;14.13;57.07;99446.78;1087714;54;20030;-79
2022/11/09 00:47:33;;;;;;;5.35;2.70;;;;;;;14.19;56.63;99449.56;1090221;46;21146;-80
2022/11/09 00:48:39;;;;;;;4.95;2.80;;;;;;;14.12;57.11;99437.88;1088093;54;20058;-79
2022/11/09 00:49:40;;;;;;;5.15;3.08;;;;;;;14.04;57.21;99444.16;1088008;54;20038;-79
2022/11/09 00:50:51;;;;;;;5.05;2.67;;;;;;;14.16;57.06;99433.84;1087934;54;20023;-80
2022/11/09 00:51:56;;;;;;;4.57;2.88;;;;;;;14.11;57.00;99436.22;1088701;46;20051;-81
2022/11/09 00:52:58;;;;;;;5.28;3.17;;;;;;;14.10;57.36;99426.47;1087938;54;20031;-78
2022/11/09 00:54:04;;;;;;;4.93;2.78;;;;;;;14.13;57.18;99428.81;1088046;54;20038;-79
2022/11/09 00:55:06;;;;;;;5.15;2.60;;;;;;;14.15;56.90;99428.63;1087898;54;20038;-81
2022/11/09 00:56:17;;;;;;;4.70;2.75;;;;;;;14.10;56.92;99426.47;1088103;54;20038;-80
2022/11/09 00:57:19;;;;;;;6.28;3.30;;;;;;;13.98;57.28;99436.03;1090170;46;20038;-78
2022/11/09 00:58:25;;;;;;;7.13;3.33;;;;;;;13.96;57.36;99438.06;1089736;46;20038;-80
2022/11/09 00:59:27;;;;;;;5.50;3.05;;;;;;;14.08;57.32;99433.06;1088122;54;20022;-79
2022/11/09 01:00:31;;;;;;;5.50;2.78;;;;;;;14.12;57.08;99435.19;1089345;46;20030;-80
2022/11/09 01:01:32;;;;;;;5.30;2.90;;;;;;;14.01;57.35;99441.88;1088589;46;20034;-79
2022/11/09 01:02:40;;;;;;;6.63;3.33;;;;;;;14.03;57.22;99439.81;1087757;54;20030;-80
2022/11/09 01:03:42;;;;;;;5.50;3.00;;;;;;;14.12;57.08;99442.44;1087692;54;20037;-78
2022/11/09 01:04:47;;;;;;;5.43;2.80;;;;;;;14.11;57.17;99441.59;1087728;54;20034;-80
2022/11/09 01:05:49;;;;;;;5.35;2.85;;;;;;;14.15;57.08;99442.06;1088035;54;20030;-80
2022/11/09 01:06:53;;;;;;;4.40;2.50;;;;;;;14.15;57.10;99442.91;1087994;54;20023;-80
2022/11/09 01:07:54;;;;;;;4.85;2.67;;;;;;;14.25;56.57;99447.19;1088063;54;20041;-80
2022/11/09 01:08:59;;;;;;;5.40;2.90;;;;;;;14.20;56.99;99445.88;1087955;54;20095;-80
2022/11/09 01:10:01;;;;;;;6.22;2.90;;;;;;;14.18;57.01;99450.59;1088597;46;20038;-79
2022/11/09 01:11:07;;;;;;;4.88;2.70;;;;;;;14.22;57.09;99455.59;1089424;39;20676;-80
2022/11/09 01:12:19;;;;;;;4.85;2.70;;;;;;;14.22;57.09;99447.53;1092059;39;20583;-82
2022/11/09 01:13:20;;;;;;;5.03;2.80;;;;;;;14.13;57.35;99453.00;1088072;54;20041;-81
2022/11/09 01:14:25;;;;;;;4.90;2.65;;;;;;;14.27;57.20;99458.56;1088545;31;20612;-79
2022/11/09 01:15:27;;;;;;;4.57;2.67;;;;;;;14.24;57.74;99448.19;1088074;54;20034;-81
2022/11/09 01:16:31;;;;;;;5.20;3.00;;;;;;;14.30;57.38;99447.47;1087937;54;20033;-80
2022/11/09 01:17:33;;;;;;;5.53;2.65;;;;;;;14.27;58.06;99450.50;1088067;54;20065;-79
2022/11/09 01:18:40;;;;;;;4.28;2.67;;;;;;;14.24;58.17;99449.03;1088001;54;20055;-80
2022/11/09 01:19:42;;;;;;;4.32;2.47;;;;;;;14.25;58.11;99455.25;1087905;54;21079;-80
2022/11/09 01:20:48;;;;;;;5.28;2.35;;;;;;;14.27;58.50;99454.03;1087873;54;20046;-80
2022/11/09 01:21:50;;;;;;;4.40;2.40;;;;;;;14.26;58.63;99449.69;1087924;54;20054;-80
2022/11/09 01:22:54;;;;;;;4.80;2.40;;;;;;;14.24;58.44;99453.56;1087921;54;20050;-80
2022/11/09 01:24:00;;;;;;;4.32;2.20;;;;;;;14.22;59.17;99445.69;1092259;31;20780;-80
2022/11/09 01:25:01;;;;;;;5.25;2.47;;;;;;;14.15;59.48;99450.13;1087890;54;20046;-80
2022/11/09 01:26:07;;;;;;;5.78;2.53;;;;;;;14.08;59.70;99450.00;1087938;54;20034;-80
2022/11/09 01:27:09;;;;;;;5.68;2.97;;;;;;;14.11;59.71;99457.72;1088030;54;20030;-80
2022/11/09 01:28:13;;;;;;;5.55;2.75;;;;;;;14.09;60.06;99453.56;1087969;54;20035;-81
2022/11/09 01:29:15;;;;;;;4.18;2.50;;;;;;;14.11;59.87;99457.72;1087985;54;20038;-80
2022/11/09 01:30:19;;;;;;;5.80;2.83;;;;;;;14.10;60.21;99450.66;1087857;54;20030;-80
2022/11/09 01:31:24;;;;;;;4.97;2.80;;;;;;;14.07;60.06;99456.44;1087957;54;20061;-80
2022/11/09 01:32:25;;;;;;;4.80;2.38;;;;;;;14.06;60.13;99462.81;1087933;54;20059;-80
2022/11/09 01:33:30;;;;;;;5.00;2.80;;;;;;;14.08;60.42;99463.44;1087959;54;20034;-80
2022/11/09 01:34:34;;;;;;;4.90;2.72;;;;;;;14.03;60.67;99474.75;1087965;54;20030;-81
2022/11/09 01:35:40;;;;;;;5.38;2.78;;;;;;;14.00;60.82;99468.91;1088051;54;20026;-80
2022/11/09 01:36:42;;;;;;;5.93;3.38;;;;;;;13.96;61.28;99472.97;1087929;54;20777;-81
2022/11/09 01:37:46;;;;;;;5.65;3.13;;;;;;;13.92;61.49;99474.34;1087950;54;20102;-78
2022/11/09 01:38:50;;;;;;;4.68;2.65;;;;;;;13.94;61.59;99483.06;1087840;54;20057;-79
2022/11/09 01:39:54;;;;;;;5.63;3.25;;;;;;;13.85;61.75;99491.19;1087945;54;20030;-80
2022/11/09 01:40:58;;;;;;;5.68;3.13;;;;;;;13.86;62.11;99492.88;1089889;39;20960;-79
2022/11/09 01:42:02;;;;;;;6.05;3.20;;;;;;;13.77;62.40;99510.06;1087985;54;20022;-80
2022/11/09 01:43:06;;;;;;;6.28;3.53;;;;;;;13.68;63.41;99513.81;1091497;39;20642;-80
2022/11/09 01:44:13;;;;;;;8.00;4.70;;;;;;;13.56;64.11;99516.91;1087991;54;20087;-80
2022/11/09 01:45:22;;;;;;;8.25;4.35;;;;;;;13.47;64.56;99515.28;1087974;54;20022;-80
2022/11/09 01:46:34;;;;;;;6.80;4.28;;;;;;;13.41;64.74;99513.31;1087840;54;20031;-80
2022/11/09 01:47:36;;;;;;;7.20;4.18;;;;;;;13.21;65.65;99508.34;1087923;54;20046;-81
2022/11/09 01:48:45;;;;;;;7.97;4.60;;;;;;;13.10;66.77;99506.03;1087888;54;20050;-80
2022/11/09 01:49:55;;;;;;;7.38;4.18;;;;;;;13.11;66.48;99510.41;1087659;54;20034;-79
2022/11/09 01:51:03;;;;;;;6.53;3.85;;;;;;;13.15;65.79;99509.03;1087683;54;20031;-79
2022/11/09 01:52:09;;;;;;;8.70;3.92;;;;;;;13.12;66.01;99512.09;1087476;54;20030;-79
2022/11/09 01:53:18;;;;;;;6.65;3.88;;;;;;;13.11;66.08;99521.13;1088541;39;20669;-80
2022/11/09 01:54:23;;;;;;;7.18;4.00;;;;;;;13.10;66.30;99514.91;1087581;54;20031;-79
2022/11/09 01:55:28;;;;;;;9.07;4.90;;;;;;;13.04;66.14;99509.41;1087471;54;20046;-80
2022/11/09 01:56:32;;;;;;;8.05;4.85;;;;;;;12.89;67.06;99514.69;1087464;54;20031;-81
2022/11/09 01:57:40;;;;;;;7.60;4.65;;;;;;;12.90;67.18;99517.19;1092237;39;20605;-80
2022/11/09 01:58:46;;;;;;;8.20;4.68;;;;;;;12.87;67.35;99522.06;1087852;54;20031;-79
2022/11/09 01:59:55;;;;;;;7.53;4.82;;;;;;;12.85;67.28;99524.06;1087677;54;20038;-80
2022/11/09 02:00:59;;;;;;;7.30;4.53;;;;;;;12.81;67.62;99515.53;1087381;54;20034;-80
2022/11/09 02:02:03;;;;;;;7.55;3.95;;;;;;;12.85;67.44;99518.72;1087778;54;21010;-80
2022/11/09 02:03:09;;;;;;;7.80;4.70;;;;;;;12.86;67.30;99510.47;1088003;46;20061;-80
2022/11/09 02:04:16;;;;;;;8.43;4.80;;;;;;;12.80;67.56;99503.13;1087656;54;20761;-80
2022/11/09 02:05:24;;;;;;;8.32;4.47;;;;;;;12.80;67.67;99500.44;1087664;54;20042;-80
2022/11/09 02:06:31;;;;;;;7.65;4.45;;;;;;;12.83;67.55;99507.31;1087689;54;20063;-81
2022/11/09 02:07:34;;;;;;;7.05;4.30;;;;;;;12.82;67.42;99493.06;1087733;54;20039;-80
2022/11/09 02:08:38;;;;;;;8.57;4.60;;;;;;;12.77;67.42;99498.09;1087628;54;20035;-79
2022/11/09 02:09:49;;;;;;;10.35;4.90;;;;;;;12.55;68.65;99499.69;1087575;54;20089;-79
2022/11/09 02:11:00;;;;;;;11.52;5.05;;;;;;;12.61;68.49;99491.78;1087719;54;20034;-79
2022/11/09 02:12:04;;;;;;;7.22;4.43;;;;;;;12.68;68.08;99488.41;1087675;54;20050;-79
2022/11/09 02:13:08;;;;;;;6.47;4.03;;;;;;;12.73;67.98;99486.06;1090686;39;20977;-80
2022/11/09 02:14:14;;;;;;;6.43;4.03;;;;;;;12.76;67.93;99491.06;1087553;54;20090;-79
2022/11/09 02:15:16;;;;;;;8.48;4.60;;;;;;;12.75;67.99;99489.41;1087691;54;20042;-80
2022/11/09 02:16:20;;;;;;;8.15;4.13;;;;;;;12.77;67.96;99492.75;1087643;54;20026;-79
2022/11/09 02:17:22;;;;;;;7.65;4.40;;;;;;;12.74;68.22;99495.78;1087711;54;20054;-80
2022/11/09 02:18:26;;;;;;;7.10;4.40;;;;;;;12.77;67.77;99495.41;1087642;54;20038;-80
2022/11/09 02:19:28;;;;;;;6.88;4.20;;;;;;;12.80;68.13;99497.78;1087586;54;20127;-80
2022/11/09 02:20:47;;;;;;;7.65;4.32;;;;;;;12.77;68.52;99492.75;1087619;54;20027;-80
2022/11/09 02:21:49;;;;;;;7.45;4.60;;;;;;;12.79;68.17;99496.09;1087489;54;20062;-80
2022/11/09 02:22:53;;;;;;;7.30;4.68;;;;;;;12.70;68.42;99492.63;1087644;54;20034;-79
2022/11/09 02:23:55;;;;;;;7.75;4.47;;;;;;;12.68;68.95;99501.81;1087586;54;20061;-80
2022/11/09 02:24:59;;;;;;;11.32;5.03;;;;;;;12.67;68.94;99503.69;1087582;54;20031;-80
2022/11/09 02:26:07;;;;;;;8.60;5.22;;;;;;;12.64;69.40;99514.75;1087583;54;20034;-79
2022/11/09 02:27:11;;;;;;;8.13;5.00;;;;;;;12.62;69.24;99516.75;1087673;54;20038;-79
2022/11/09 02:28:14;;;;;;;8.00;5.03;;;;;;;12.60;69.02;99508.06;1087626;54;20069;-80
2022/11/09 02:29:21;;;;;;;10.13;5.20;;;;;;;12.58;69.57;99505.53;1087632;46;20034;-79
2022/11/09 02:30:23;;;;;;;9.07;4.90;;;;;;;12.55;69.57;99505.88;1087592;54;20035;-79
2022/11/09 02:31:35;;;;;;;11.15;5.10;;;;;;;12.51;70.09;99499.19;1087610;54;20030;-79
2022/11/09 02:32:36;;;;;;;8.82;5.00;;;;;;;12.47;70.25;99498.69;1090181;39;20682;-79
2022/11/09 02:33:56;;;;;;;9.70;4.78;;;;;;;12.48;70.50;99494.16;1087600;54;20033;-79
2022/11/09 02:34:57;;;;;;;8.40;5.13;;;;;;;12.43;70.27;99501.88;1087562;54;20041;-79
2022/11/09 02:36:04;;;;;;;7.45;4.80;;;;;;;12.48;70.37;99507.56;1087605;54;20054;-79
2022/11/09 02:37:06;;;;;;;9.02;5.20;;;;;;;12.53;69.99;99497.19;1087611;54;20036;-79
2022/11/09 02:38:12;;;;;;;7.88;5.07;;;;;;;12.57;69.83;99498.50;1087718;54;20034;-78
2022/11/09 02:39:20;;;;;;;7.18;4.53;;;;;;;12.63;69.77;99497.81;1087596;54;20022;-79
2022/11/09 02:40:28;;;;;;;7.50;4.70;;;;;;;12.64;69.81;99486.09;1087511;54;20070;-79
2022/11/09 02:41:31;;;;;;;7.63;4.28;;;;;;;12.68;69.39;99493.78;1088076;46;20018;-78
2022/11/09 02:42:35;;;;;;;6.95;4.45;;;;;;;12.71;69.48;99488.06;1087622;54;20038;-79
2022/11/09 02:43:38;;;;;;;9.70;5.05;;;;;;;12.72;69.46;99495.13;1087701;54;20030;-79
2022/11/09 02:44:47;;;;;;;7.55;5.05;;;;;;;12.64;70.24;99494.13;1091141;39;20640;-80
2022/11/09 02:45:49;;;;;;;8.75;4.70;;;;;;;12.63;70.20;99496.97;1087573;54;20030;-80
2022/11/09 02:46:53;;;;;;;7.78;4.78;;;;;;;12.67;70.20;99494.78;1087593;54;20031;-80
2022/11/09 02:47:55;;;;;;;8.18;4.82;;;;;;;12.62;70.55;99506.88;1087702;47;20042;-79
2022/11/09 02:48:59;;;;;;;7.35;4.82;;;;;;;12.52;71.04;99513.41;1087656;54;20033;-80
2022/11/09 02:50:00;;;;;;;8.23;5.00;;;;;;;12.44;71.63;99525.84;1087622;54;20078;-80
2022/11/09 02:51:07;;;;;;;10.65;5.45;;;;;;;12.33;72.26;99524.34;1087576;54;20030;-80
2022/11/09 02:52:09;;;;;;;8.90;5.20;;;;;;;12.35;72.42;99534.88;1087674;54;20039;-80
2022/11/09 02:53:14;;;;;;;9.35;4.80;;;;;;;12.45;71.91;99530.19;1087775;54;20030;-80
2022/11/09 02:54:15;;;;;;;8.15;5.03;;;;;;;12.50;71.94;99523.50;1087726;54;20065;-79
2022/11/09 02:55:20;;;;;;;8.63;5.30;;;;;;;12.41;72.06;99528.88;1087714;54;20034;-80
2022/11/09 02:56:22;;;;;;;7.82;5.10;;;;;;;12.31;72.36;99526.34;1087694;54;20030;-80
2022/11/09 02:57:26;;;;;;;9.10;5.57;;;;;;;12.28;73.01;99542.75;1087861;54;20119;-82
2022/11/09 02:58:27;;;;;;;8.95;5.45;;;;;;;12.16;73.49;99536.09;1087773;54;20030;-81
2022/11/09 02:59:32;;;;;;;8.35;5.63;;;;;;;12.14;73.57;99536.22;1087920;47;20042;-82
2022/11/09 03:00:33;;;;;;;8.68;5.57;;;;;;;12.21;73.37;99533.72;1087649;54;20042;-81
2022/11/09 03:01:37;;;;;;;8.40;5.60;;;;;;;12.22;73.39;99534.56;1087330;54;20034;-80
2022/11/09 03:02:39;;;;;;;8.82;4.70;;;;;;;12.19;73.72;99532.22;1087774;54;20061;-79
2022/11/09 03:03:43;;;;;;;7.15;4.45;;;;;;;12.24;73.77;99535.22;1087921;54;20019;-80
2022/11/09 03:04:44;;;;;;;10.20;5.43;;;;;;;12.20;73.52;99532.03;1087846;54;20045;-81
2022/11/09 03:05:51;;;;;;;11.68;5.45;;;;;;;12.10;74.42;99531.38;1090074;46;20038;-81
2022/11/09 03:06:55;;;;;;;10.63;5.20;;;;;;;12.09;74.76;99532.41;1087933;54;20038;-81
2022/11/09 03:08:01;;;;;;;8.80;4.97;;;;;;;12.07;74.69;99529.88;1088078;54;20018;-82
2022/11/09 03:09:04;;;;;;;10.02;5.20;;;;;;;12.01;75.11;99527.88;1088169;54;20037;-82
2022/11/09 03:10:11;;;;;;;11.13;5.18;;;;;;;12.02;75.22;99529.56;1087945;54;20034;-81
2022/11/09 03:11:13;;;;;;;7.85;5.65;;;;;;;12.02;75.23;99535.72;1087947;54;20024;-81
2022/11/09 03:12:32;;;;;;;7.88;4.82;;;;;;;11.98;75.51;99531.72;1087892;54;20111;-81
2022/11/09 03:13:34;;;;;;;8.60;5.38;;;;;;;11.97;75.47;99532.72;1088016;54;20041;-80
2022/11/09 03:14:38;;;;;;;8.70;5.03;;;;;;;12.07;74.77;99531.72;1087906;54;20026;-81
2022/11/09 03:15:42;;;;;;;10.45;5.75;;;;;;;11.92;75.59;99545.72;1087981;54;20018;-81
2022/11/09 03:16:44;;;;;;;8.70;4.97;;;;;;;12.03;75.39;99533.91;1088069;54;20062;-81
2022/11/09 03:17:49;;;;;;;9.10;5.32;;;;;;;12.12;74.97;99540.09;1088016;54;20030;-82
2022/11/09 03:18:51;;;;;;;7.22;4.85;;;;;;;12.24;74.96;99535.22;1088051;54;20034;-81
2022/11/09 03:19:56;;;;;;;8.32;4.80;;;;;;;12.31;74.68;99539.75;1088030;54;20706;-82
2022/11/09 03:21:04;;;;;;;6.72;4.72;;;;;;;12.32;74.77;99533.38;1088005;54;20064;-81
2022/11/09 03:22:08;;;;;;;7.50;4.97;;;;;;;12.35;74.37;99534.88;1087913;54;20021;-80
2022/11/09 03:23:13;;;;;;;7.15;4.45;;;;;;;12.39;73.99;99527.34;1088346;39;21056;-80
2022/11/09 03:24:15;;;;;;;6.10;3.92;;;;;;;12.40;73.90;99531.69;1088059;54;20034;-82
2022/11/09 03:25:26;;;;;;;6.55;3.90;;;;;;;12.41;73.89;99534.22;1088797;46;20042;-82
2022/11/09 03:26:28;;;;;;;7.22;4.20;;;;;;;12.46;74.00;99525.69;1087966;54;20031;-82
2022/11/09 03:27:33;;;;;;;6.07;3.80;;;;;;;12.48;73.60;99527.19;1087891;54;20880;-81
2022/11/09 03:28:35;;;;;;;5.70;3.70;;;;;;;12.46;73.61;99523.81;1087952;54;20713;-81
2022/11/09 03:29:40;;;;;;;5.95;3.80;;;;;;;12.45;73.56;99522.16;1088110;54;20034;-81
2022/11/09 03:30:46;;;;;;;7.32;3.67;;;;;;;12.46;73.57;99526.50;1087915;54;20746;-81
2022/11/09 03:31:56;;;;;;;7.28;4.20;;;;;;;12.38;74.03;99525.66;1087974;54;20046;-81
2022/11/09 03:33:02;;;;;;;5.93;3.78;;;;;;;12.46;73.75;99529.19;1087902;54;20014;-81
2022/11/09 03:34:04;;;;;;;5.20;3.55;;;;;;;12.45;73.88;99526.69;1087970;54;20026;-81
2022/11/09 03:35:12;;;;;;;6.15;3.55;;;;;;;12.50;73.62;99526.19;1088054;54;20031;-81
2022/11/09 03:36:14;;;;;;;5.47;3.40;;;;;;;12.51;73.35;99527.84;1090572;46;20059;-82
2022/11/09 03:37:21;;;;;;;5.22;3.53;;;;;;;12.55;73.37;99527.34;1087975;54;20745;-82
2022/11/09 03:38:26;;;;;;;5.57;3.53;;;;;;;12.50;73.26;99526.19;1088025;54;20034;-82
2022/11/09 03:39:31;;;;;;;6.72;3.80;;;;;;;12.51;73.18;99528.69;1089371;46;20026;-82
2022/11/09 03:40:35;;;;;;;5.45;3.50;;;;;;;12.52;73.46;99529.50;1088684;47;20022;-81
2022/11/09 03:41:38;;;;;;;6.13;3.72;;;;;;;12.55;73.56;99530.03;1088188;54;20043;-82
2022/11/09 03:42:50;;;;;;;5.57;3.35;;;;;;;12.60;73.18;99533.00;1088184;54;20027;-82
2022/11/09 03:43:52;;;;;;;6.18;3.70;;;;;;;12.55;73.48;99526.50;1088113;54;20038;-80
2022/11/09 03:44:58;;;;;;;7.18;3.70;;;;;;;12.52;74.02;99519.63;1088118;54;20061;-81
2022/11/09 03:45:59;;;;;;;6.90;4.45;;;;;;;12.48;73.97;99520.97;1088208;54;20015;-81
2022/11/09 03:47:04;;;;;;;7.68;3.78;;;;;;;12.51;73.99;99519.81;1088050;54;20091;-81
2022/11/09 03:48:09;;;;;;;5.47;3.65;;;;;;;12.50;74.05;99521.63;1091612;39;20684;-82
2022/11/09 03:49:16;;;;;;;6.97;3.72;;;;;;;12.48;73.97;99524.50;1088152;54;20026;-80
2022/11/09 03:50:19;;;;;;;6.28;4.10;;;;;;;12.53;74.21;99521.31;1089480;39;20839;-81
2022/11/09 03:51:29;;;;;;;6.82;3.53;;;;;;;12.54;74.18;99522.97;1088136;54;20027;-82
2022/11/09 03:52:33;;;;;;;5.88;3.65;;;;;;;12.50;74.42;99524.31;1088215;54;20034;-81
2022/11/09 03:53:37;;;;;;;7.50;4.47;;;;;;;12.48;74.22;99526.31;1088062;54;20022;-82
2022/11/09 03:54:39;;;;;;;6.65;3.55;;;;;;;12.50;74.43;99527.00;1087994;54;20102;-81
2022/11/09 03:55:50;;;;;;;6.25;3.90;;;;;;;12.44;75.09;99525.00;1088097;54;20026;-81
2022/11/09 03:56:51;;;;;;;7.25;3.80;;;;;;;12.46;74.79;99533.72;1088179;54;20045;-80
2022/11/09 03:57:56;;;;;;;8.65;4.18;;;;;;;12.47;75.00;99524.66;1088402;46;20018;-83
2022/11/09 03:59:01;;;;;;;5.95;3.50;;;;;;;12.48;75.08;99524.50;1088054;54;20027;-80
2022/11/09 04:00:13;;;;;;;5.55;3.25;;;;;;;12.54;75.00;99527.50;1089060;46;20034;-82
2022/11/09 04:01:15;;;;;;;5.07;3.28;;;;;;;12.57;74.82;99519.94;1089355;47;20729;-80
2022/11/09 04:02:19;;;;;;;7.15;4.13;;;;;;;12.59;74.76;99525.97;1087662;54;20037;-81
2022/11/09 04:03:21;;;;;;;6.40;3.65;;;;;;;12.58;74.60;99524.31;1088021;54;20030;-79
2022/11/09 04:04:29;;;;;;;5.70;3.40;;;;;;;12.61;74.84;99528.50;1088088;54;20030;-81
2022/11/09 04:05:31;;;;;;;5.75;3.33;;;;;;;12.64;74.97;99529.00;1090639;39;20660;-81
2022/11/09 04:06:39;;;;;;;7.05;3.28;;;;;;;12.66;74.94;99534.19;1087967;54;20015;-82
2022/11/09 04:07:46;;;;;;;6.85;3.60;;;;;;;12.63;75.15;99530.00;1088152;54;20038;-81
2022/11/09 04:08:56;;;;;;;6.13;3.40;;;;;;;12.61;75.46;99531.19;1088070;54;20027;-81
2022/11/09 04:09:58;;;;;;;5.78;3.25;;;;;;;12.58;75.66;99526.97;1087997;54;20055;-83
2022/11/09 04:11:03;;;;;;;7.15;3.92;;;;;;;12.62;75.71;99522.97;1088043;54;20026;-83
2022/11/09 04:12:05;;;;;;;6.28;3.95;;;;;;;12.59;76.21;99520.63;1089918;47;20062;-83
2022/11/09 04:13:10;;;;;;;8.07;4.82;;;;;;;12.58;76.16;99520.78;1088126;54;20042;-81
2022/11/09 04:14:12;;;;;;;6.93;4.07;;;;;;;12.57;76.39;99524.47;1088042;47;20018;-82
2022/11/09 04:15:17;;;;;;;6.22;3.80;;;;;;;12.60;76.25;99524.16;1088716;31;20727;-80
2022/11/09 04:16:19;;;;;;;5.80;3.45;;;;;;;12.58;76.13;99520.78;1087959;54;20061;-82
2022/11/09 04:17:37;;;;;;;5.88;3.92;;;;;;;12.50;77.75;99524.31;1088177;54;20041;-82
2022/11/09 04:18:39;;;;;;;8.95;4.25;;;;;;;12.45;77.10;99518.66;1088305;54;20015;-82
2022/11/09 04:19:58;;;;;;;7.20;4.57;;;;;;;12.45;77.61;99518.66;1088283;54;20023;-82
2022/11/09 04:21:00;;;;;;;6.38;3.80;;;;;;;12.46;77.22;99512.28;1088226;54;20014;-81
2022/11/09 04:23:23;;;;;;;5.57;3.60;;;;;;;12.52;77.46;99514.25;1087720;54;20026;-82
2022/11/09 04:24:27;;;;;;;5.93;3.58;;;;;;;12.55;76.97;99516.63;1088393;54;20037;-82
2022/11/09 04:25:58;;;;;;;5.85;3.22;;;;;;;12.55;77.40;99511.25;1088357;54;20026;-82
2022/11/09 04:27:00;;;;;;;;;;;;;;;12.46;77.96;99513.09;1089116;47;20018;-82
2022/11/09 04:28:13;;;;;;;6.35;3.70;;;;;;;12.52;77.46;99506.22;1088275;54;19942;-83
2022/11/09 04:29:31;;;;;;;4.95;3.33;;;;;;;12.57;77.08;99511.06;1088286;54;20034;-82
2022/11/09 04:30:38;;;;;;;5.05;2.97;;;;;;;12.52;77.76;99516.94;1089088;47;20045;-82
2022/11/09 04:31:42;;;;;;;6.07;3.63;;;;;;;12.53;77.84;99515.94;1088169;54;20106;-82
2022/11/09 04:32:47;;;;;;;5.82;3.40;;;;;;;12.59;77.71;99515.25;1088134;54;20030;-81
2022/11/09 04:33:52;;;;;;;6.90;4.07;;;;;;;12.53;77.86;99525.81;1088054;54;20042;-82
2022/11/09 04:34:54;;;;;;;6.00;4.00;;;;;;;12.52;78.15;99514.25;1087953;54;20023;-83
2022/11/09 04:36:04;;;;;;;6.45;3.95;;;;;;;12.57;78.34;99522.63;1088591;39;20815;-82
2022/11/09 04:37:06;;;;;;;7.20;3.95;;;;;;;12.50;78.49;99524.31;1088136;54;20090;-82
2022/11/09 04:38:20;;;;;;;6.40;3.92;;;;;;;12.50;78.61;99523.50;1089389;47;20178;-83
2022/11/09 04:39:24;;;;;;;6.72;4.10;;;;;;;12.43;79.00;99526.84;1088141;54;20061;-82
2022/11/09 04:40:30;;;;;;;8.05;4.82;;;;;;;12.22;80.19;99537.25;1087935;54;20053;-81
2022/11/09 04:41:35;;;;;;;10.20;5.80;;;;;;;12.09;80.74;99538.59;1089838;39;20649;-82
2022/11/09 04:42:37;;;;;;;9.25;5.22;;;;;;;11.93;81.66;99538.56;1088045;54;20046;-82
2022/11/09 04:43:43;;;;;;;7.38;5.28;;;;;;;11.91;82.39;99540.56;1088138;54;20031;-82
2022/11/09 04:44:45;;;;;;;7.63;5.15;;;;;;;11.82;82.89;99545.06;1088212;54;20733;-82
2022/11/09 04:45:49;;;;;;;8.88;4.65;;;;;;;11.73;83.48;99549.56;1088057;54;20030;-80
2022/11/09 04:46:51;;;;;;;10.32;5.05;;;;;;;11.57;85.01;99545.00;1088070;54;20034;-81
2022/11/09 04:48:13;;;;;;;;;;;;;;;;;;;;;
2022/11/09 05:05:21;;;;;;;6.05;3.45;;;;;;;11.70;84.99;99526.66;1088040;54;20037;-81
2022/11/09 05:07:06;;;;;;;7.82;4.25;;;;;;;11.82;84.87;99516.44;1088456;47;20014;-82
2022/11/09 05:08:14;;;;;;;7.78;3.92;;;;;;;11.64;85.60;99523.78;1087946;54;20042;-81
2022/11/09 05:09:24;;;;;;;8.55;4.25;;;;;;;11.58;85.95;99533.31;1088204;54;20019;-82
2022/11/09 05:10:29;;;;;;;9.80;5.18;;;;;;;11.64;85.94;99535.31;1091935;47;20803;-83
2022/11/09 05:11:40;;;;;;;6.20;4.03;;;;;;;11.62;85.68;99534.63;1088574;47;20022;-83
2022/11/09 05:12:46;;;;;;;7.05;4.10;;;;;;;11.55;86.47;99538.97;1088241;54;20049;-84
2022/11/09 05:13:56;;;;;;;7.15;4.10;;;;;;;11.48;86.95;99543.31;1088318;54;20030;-83
2022/11/09 05:15:03;;;;;;;;;;;;;;;11.46;87.55;99539.97;1088675;54;20015;-82
2022/11/09 05:16:16;;;;;;;7.60;4.28;;;;;;;11.54;86.55;99542.66;1088464;46;19953;-80
2022/11/09 05:17:25;;;;;;;7.05;4.70;;;;;;;11.44;87.01;99544.63;1088149;54;20038;-83
2022/11/09 05:18:32;;;;;;;6.95;4.05;;;;;;;11.53;86.49;99541.81;1088479;54;20061;-80
2022/11/09 05:19:39;;;;;;;6.53;4.38;;;;;;;11.66;85.62;99554.75;1088190;54;20035;-83
2022/11/09 05:20:43;;;;;;;6.57;3.97;;;;;;;11.71;85.31;99540.84;1089909;46;20010;-81
2022/11/09 05:23:57;;;;;;;7.20;4.57;;;;;;;11.66;85.56;99537.84;1088318;54;20031;-82
2022/11/09 05:24:37;;;;;;;8.02;4.78;;;;;;;11.62;85.66;99534.63;1088278;54;20035;-81
2022/11/09 05:25:50;;;;;;;9.38;4.97;;;;;;;11.65;85.90;99530.81;1088817;46;20809;-81
2022/11/09 05:26:55;;;;;;;10.38;4.63;;;;;;;11.70;85.13;99534.69;1088414;54;20014;-81
2022/11/09 05:34:29;;;;;;;7.35;5.10;;;;;;;11.57;86.86;99544.19;1088097;54;20793;-82
2022/11/09 05:35:33;;;;;;;9.27;7.05;;;;;;;11.48;86.90;99543.31;1088081;54;20038;-83
2022/11/09 05:36:37;;;;;;;10.23;6.65;;;;;;;11.54;86.50;99542.66;1088097;54;20030;-82
2022/11/09 05:37:40;;;;;;;9.27;7.35;;;;;;;11.55;86.55;99537.16;1088129;54;20039;-83